sensor_id;sensor_type;location;lat;lon;timestamp;P1;durP1;ratioP1;P2;durP2;ratioP2
32808;SDS011;19159;48.178;16.386;2024-03-23T00:55:40;7.70;;;5.45;;
32808;SDS011;19159;48.178;16.386;2024-03-23T00:58:06;7.38;;;5.68;;
32808;SDS011;19159;48.178;16.386;2024-03-23T01:00:32;7.85;;;5.68;;
32808;SDS011;19159;48.178;16.386;2024-03-23T01:02:57;7.13;;;5.63;;
32808;SDS011;19159;48.178;16.386;2024-03-23T01:05:23;6.40;;;5.45;;
32808;SDS011;19159;48.178;16.386;2024-03-23T01:07:49;6.38;;;5.40;;
32808;SDS011;19159;48.178;16.386;2024-03-23T01:10:14;6.20;;;5.15;;
32808;SDS011;19159;48.178;16.386;2024-03-23T01:12:40;7.60;;;5.68;;
32808;SDS011;19159;48.178;16.386;2024-03-23T01:15:06;6.80;;;5.45;;
32808;SDS011;19159;48.178;16.386;2024-03-23T01:17:32;7.53;;;5.95;;
32808;SDS011;19159;48.178;16.386;2024-03-23T01:19:57;7.13;;;5.38;;
32808;SDS011;19159;48.178;16.386;2024-03-23T01:22:23;6.90;;;5.57;;
32808;SDS011;19159;48.178;16.386;2024-03-23T01:24:49;6.72;;;5.47;;
32808;SDS011;19159;48.178;16.386;2024-03-23T01:27:14;6.22;;;5.00;;
32808;SDS011;19159;48.178;16.386;2024-03-23T01:29:40;6.85;;;5.40;;
32808;SDS011;19159;48.178;16.386;2024-03-23T01:32:05;5.93;;;4.70;;
32808;SDS011;19159;48.178;16.386;2024-03-23T01:34:32;6.57;;;4.65;;
32808;SDS011;19159;48.178;16.386;2024-03-23T01:36:57;6.63;;;4.65;;
32808;SDS011;19159;48.178;16.386;2024-03-23T01:39:23;6.82;;;5.35;;
32808;SDS011;19159;48.178;16.386;2024-03-23T01:41:49;7.05;;;4.82;;
32808;SDS011;19159;48.178;16.386;2024-03-23T01:44:15;6.18;;;4.80;;
32808;SDS011;19159;48.178;16.386;2024-03-23T01:46:41;5.68;;;4.68;;
32808;SDS011;19159;48.178;16.386;2024-03-23T01:49:07;6.47;;;5.20;;
32808;SDS011;19159;48.178;16.386;2024-03-23T01:51:33;6.47;;;4.93;;
32808;SDS011;19159;48.178;16.386;2024-03-23T01:54:00;6.30;;;5.03;;
32808;SDS011;19159;48.178;16.386;2024-03-23T01:56:31;5.97;;;5.05;;
32808;SDS011;19159;48.178;16.386;2024-03-23T01:59:04;7.15;;;5.25;;
32808;SDS011;19159;48.178;16.386;2024-03-23T02:01:30;7.32;;;5.25;;
32808;SDS011;19159;48.178;16.386;2024-03-23T02:03:56;10.10;;;5.85;;
32808;SDS011;19159;48.178;16.386;2024-03-23T02:06:23;6.05;;;5.22;;
32808;SDS011;19159;48.178;16.386;2024-03-23T02:08:49;6.10;;;5.50;;
32808;SDS011;19159;48.178;16.386;2024-03-23T02:11:15;6.45;;;4.95;;
32808;SDS011;19159;48.178;16.386;2024-03-23T02:13:41;6.32;;;5.18;;
32808;SDS011;19159;48.178;16.386;2024-03-23T02:16:06;8.95;;;5.90;;
32808;SDS011;19159;48.178;16.386;2024-03-23T02:18:32;8.10;;;6.07;;
32808;SDS011;19159;48.178;16.386;2024-03-23T02:20:58;6.45;;;4.97;;
32808;SDS011;19159;48.178;16.386;2024-03-23T02:23:24;8.48;;;5.53;;
32808;SDS011;19159;48.178;16.386;2024-03-23T02:25:50;8.13;;;5.63;;
32808;SDS011;19159;48.178;16.386;2024-03-23T02:28:16;6.70;;;5.43;;
32808;SDS011;19159;48.178;16.386;2024-03-23T02:30:42;6.55;;;5.20;;
32808;SDS011;19159;48.178;16.386;2024-03-23T02:33:08;7.03;;;5.90;;
32808;SDS011;19159;48.178;16.386;2024-03-23T02:35:33;7.00;;;6.25;;
32808;SDS011;19159;48.178;16.386;2024-03-23T02:37:59;6.72;;;5.88;;
32808;SDS011;19159;48.178;16.386;2024-03-23T02:40:25;6.40;;;5.72;;
32808;SDS011;19159;48.178;16.386;2024-03-23T02:42:51;7.05;;;6.00;;
32808;SDS011;19159;48.178;16.386;2024-03-23T02:45:17;8.43;;;6.32;;
32808;SDS011;19159;48.178;16.386;2024-03-23T02:47:43;6.78;;;6.07;;
32808;SDS011;19159;48.178;16.386;2024-03-23T02:50:09;6.70;;;5.88;;
32808;SDS011;19159;48.178;16.386;2024-03-23T02:52:35;6.88;;;5.70;;
32808;SDS011;19159;48.178;16.386;2024-03-23T02:55:01;6.88;;;6.13;;
32808;SDS011;19159;48.178;16.386;2024-03-23T02:57:27;7.22;;;5.63;;
32808;SDS011;19159;48.178;16.386;2024-03-23T02:59:53;7.82;;;5.95;;
32808;SDS011;19159;48.178;16.386;2024-03-23T03:02:19;6.35;;;5.75;;
32808;SDS011;19159;48.178;16.386;2024-03-23T03:04:45;7.43;;;5.70;;
32808;SDS011;19159;48.178;16.386;2024-03-23T03:07:11;7.50;;;6.25;;
32808;SDS011;19159;48.178;16.386;2024-03-23T03:09:36;7.38;;;5.95;;
32808;SDS011;19159;48.178;16.386;2024-03-23T03:12:04;9.85;;;6.45;;
32808;SDS011;19159;48.178;16.386;2024-03-23T03:14:30;7.43;;;6.35;;
32808;SDS011;19159;48.178;16.386;2024-03-23T03:16:56;7.63;;;6.20;;
32808;SDS011;19159;48.178;16.386;2024-03-23T03:19:21;9.90;;;5.95;;
32808;SDS011;19159;48.178;16.386;2024-03-23T03:21:47;6.82;;;5.78;;
32808;SDS011;19159;48.178;16.386;2024-03-23T03:24:13;6.07;;;5.47;;
32808;SDS011;19159;48.178;16.386;2024-03-23T03:26:39;5.78;;;5.20;;
32808;SDS011;19159;48.178;16.386;2024-03-23T03:29:05;5.20;;;4.70;;
32808;SDS011;19159;48.178;16.386;2024-03-23T03:31:30;7.28;;;4.78;;
32808;SDS011;19159;48.178;16.386;2024-03-23T03:33:56;5.93;;;4.97;;
32808;SDS011;19159;48.178;16.386;2024-03-23T03:36:22;6.75;;;5.13;;
32808;SDS011;19159;48.178;16.386;2024-03-23T03:38:47;6.80;;;4.68;;
32808;SDS011;19159;48.178;16.386;2024-03-23T03:41:13;6.28;;;4.60;;
32808;SDS011;19159;48.178;16.386;2024-03-23T03:43:39;7.55;;;5.05;;
32808;SDS011;19159;48.178;16.386;2024-03-23T03:46:04;4.93;;;4.43;;
32808;SDS011;19159;48.178;16.386;2024-03-23T03:48:32;6.57;;;4.78;;
32808;SDS011;19159;48.178;16.386;2024-03-23T03:50:58;5.72;;;4.72;;
32808;SDS011;19159;48.178;16.386;2024-03-23T03:53:24;5.60;;;4.70;;
32808;SDS011;19159;48.178;16.386;2024-03-23T03:55:50;6.00;;;5.05;;
32808;SDS011;19159;48.178;16.386;2024-03-23T03:58:15;4.90;;;4.40;;
32808;SDS011;19159;48.178;16.386;2024-03-23T04:00:41;6.00;;;4.75;;
32808;SDS011;19159;48.178;16.386;2024-03-23T04:03:07;4.60;;;4.03;;
32808;SDS011;19159;48.178;16.386;2024-03-23T04:05:32;5.40;;;4.00;;
32808;SDS011;19159;48.178;16.386;2024-03-23T04:07:58;5.22;;;3.95;;
32808;SDS011;19159;48.178;16.386;2024-03-23T04:10:23;4.75;;;3.80;;
32808;SDS011;19159;48.178;16.386;2024-03-23T04:12:50;4.72;;;3.88;;
32808;SDS011;19159;48.178;16.386;2024-03-23T04:15:16;5.40;;;3.88;;
32808;SDS011;19159;48.178;16.386;2024-03-23T04:17:41;4.80;;;3.80;;
32808;SDS011;19159;48.178;16.386;2024-03-23T04:20:08;7.20;;;4.57;;
32808;SDS011;19159;48.178;16.386;2024-03-23T04:22:36;6.05;;;4.20;;
32808;SDS011;19159;48.178;16.386;2024-03-23T04:25:02;4.82;;;4.05;;
32808;SDS011;19159;48.178;16.386;2024-03-23T04:27:35;4.63;;;4.22;;
32808;SDS011;19159;48.178;16.386;2024-03-23T04:30:01;5.75;;;4.30;;
32808;SDS011;19159;48.178;16.386;2024-03-23T04:32:29;4.60;;;4.07;;
32808;SDS011;19159;48.178;16.386;2024-03-23T04:34:54;5.22;;;3.90;;
32808;SDS011;19159;48.178;16.386;2024-03-23T04:37:21;5.68;;;4.32;;
32808;SDS011;19159;48.178;16.386;2024-03-23T04:39:47;4.75;;;4.10;;
32808;SDS011;19159;48.178;16.386;2024-03-23T04:42:14;5.82;;;4.35;;
32808;SDS011;19159;48.178;16.386;2024-03-23T04:44:41;8.15;;;4.30;;
32808;SDS011;19159;48.178;16.386;2024-03-23T04:47:07;8.52;;;4.47;;
32808;SDS011;19159;48.178;16.386;2024-03-23T04:49:32;6.68;;;4.35;;
32808;SDS011;19159;48.178;16.386;2024-03-23T04:51:58;5.10;;;4.47;;
32808;SDS011;19159;48.178;16.386;2024-03-23T04:54:24;5.55;;;4.45;;
32808;SDS011;19159;48.178;16.386;2024-03-23T04:56:49;5.78;;;5.05;;
32808;SDS011;19159;48.178;16.386;2024-03-23T04:59:15;4.80;;;4.30;;
32808;SDS011;19159;48.178;16.386;2024-03-23T05:01:41;6.05;;;4.38;;
32808;SDS011;19159;48.178;16.386;2024-03-23T05:04:08;6.68;;;4.93;;
32808;SDS011;19159;48.178;16.386;2024-03-23T05:06:34;5.47;;;4.43;;
32808;SDS011;19159;48.178;16.386;2024-03-23T05:09:00;5.07;;;4.32;;
32808;SDS011;19159;48.178;16.386;2024-03-23T05:11:31;7.25;;;4.68;;
32808;SDS011;19159;48.178;16.386;2024-03-23T05:13:57;8.15;;;4.10;;
32808;SDS011;19159;48.178;16.386;2024-03-23T05:16:23;7.53;;;4.53;;
32808;SDS011;19159;48.178;16.386;2024-03-23T05:18:48;6.35;;;4.30;;
32808;SDS011;19159;48.178;16.386;2024-03-23T05:21:14;5.00;;;4.60;;
32808;SDS011;19159;48.178;16.386;2024-03-23T05:23:40;6.78;;;4.30;;
32808;SDS011;19159;48.178;16.386;2024-03-23T05:26:05;4.63;;;4.10;;
32808;SDS011;19159;48.178;16.386;2024-03-23T05:28:31;7.80;;;4.60;;
32808;SDS011;19159;48.178;16.386;2024-03-23T05:30:56;6.28;;;4.85;;
32808;SDS011;19159;48.178;16.386;2024-03-23T05:33:22;6.30;;;4.00;;
32808;SDS011;19159;48.178;16.386;2024-03-23T05:35:56;6.38;;;4.43;;
32808;SDS011;19159;48.178;16.386;2024-03-23T05:38:22;5.22;;;4.18;;
32808;SDS011;19159;48.178;16.386;2024-03-23T05:40:57;5.13;;;4.43;;
32808;SDS011;19159;48.178;16.386;2024-03-23T05:43:24;4.57;;;4.13;;
32808;SDS011;19159;48.178;16.386;2024-03-23T05:45:57;5.93;;;4.80;;
32808;SDS011;19159;48.178;16.386;2024-03-23T05:48:23;9.10;;;5.00;;
32808;SDS011;19159;48.178;16.386;2024-03-23T05:50:50;6.93;;;5.00;;
32808;SDS011;19159;48.178;16.386;2024-03-23T05:53:16;6.65;;;5.80;;
32808;SDS011;19159;48.178;16.386;2024-03-23T05:55:42;7.25;;;5.90;;
32808;SDS011;19159;48.178;16.386;2024-03-23T05:58:08;6.45;;;5.82;;
32808;SDS011;19159;48.178;16.386;2024-03-23T06:00:33;5.95;;;5.35;;
32808;SDS011;19159;48.178;16.386;2024-03-23T06:02:59;10.00;;;6.55;;
32808;SDS011;19159;48.178;16.386;2024-03-23T06:05:25;6.82;;;6.13;;
32808;SDS011;19159;48.178;16.386;2024-03-23T06:07:50;7.10;;;6.40;;
32808;SDS011;19159;48.178;16.386;2024-03-23T06:10:16;8.13;;;6.18;;
32808;SDS011;19159;48.178;16.386;2024-03-23T06:12:43;7.68;;;6.22;;
32808;SDS011;19159;48.178;16.386;2024-03-23T06:15:09;7.18;;;6.35;;
32808;SDS011;19159;48.178;16.386;2024-03-23T06:17:38;7.30;;;5.70;;
32808;SDS011;19159;48.178;16.386;2024-03-23T06:20:04;7.22;;;5.57;;
32808;SDS011;19159;48.178;16.386;2024-03-23T06:22:35;8.23;;;6.00;;
32808;SDS011;19159;48.178;16.386;2024-03-23T06:25:00;9.18;;;5.40;;
32808;SDS011;19159;48.178;16.386;2024-03-23T06:27:26;9.45;;;5.90;;
32808;SDS011;19159;48.178;16.386;2024-03-23T06:29:52;7.15;;;6.00;;
32808;SDS011;19159;48.178;16.386;2024-03-23T06:32:17;7.45;;;5.88;;
32808;SDS011;19159;48.178;16.386;2024-03-23T06:34:43;8.18;;;6.55;;
32808;SDS011;19159;48.178;16.386;2024-03-23T06:37:09;9.18;;;6.68;;
32808;SDS011;19159;48.178;16.386;2024-03-23T06:39:38;6.97;;;5.90;;
32808;SDS011;19159;48.178;16.386;2024-03-23T06:42:04;7.38;;;5.88;;
32808;SDS011;19159;48.178;16.386;2024-03-23T06:44:30;6.32;;;5.60;;
32808;SDS011;19159;48.178;16.386;2024-03-23T06:46:56;7.70;;;5.65;;
32808;SDS011;19159;48.178;16.386;2024-03-23T06:49:23;6.28;;;5.30;;
32808;SDS011;19159;48.178;16.386;2024-03-23T06:51:48;7.90;;;5.78;;
32808;SDS011;19159;48.178;16.386;2024-03-23T06:54:16;10.20;;;6.97;;
32808;SDS011;19159;48.178;16.386;2024-03-23T06:56:46;7.78;;;6.90;;
32808;SDS011;19159;48.178;16.386;2024-03-23T06:59:11;12.10;;;7.40;;
32808;SDS011;19159;48.178;16.386;2024-03-23T07:01:37;8.95;;;8.02;;
32808;SDS011;19159;48.178;16.386;2024-03-23T07:04:03;8.70;;;7.85;;
32808;SDS011;19159;48.178;16.386;2024-03-23T07:06:30;10.27;;;8.32;;
32808;SDS011;19159;48.178;16.386;2024-03-23T07:08:56;10.07;;;7.88;;
32808;SDS011;19159;48.178;16.386;2024-03-23T07:11:22;9.80;;;8.80;;
32808;SDS011;19159;48.178;16.386;2024-03-23T07:13:52;9.35;;;8.45;;
32808;SDS011;19159;48.178;16.386;2024-03-23T07:16:21;10.07;;;9.07;;
32808;SDS011;19159;48.178;16.386;2024-03-23T07:18:47;10.32;;;8.40;;
32808;SDS011;19159;48.178;16.386;2024-03-23T07:21:15;10.35;;;9.35;;
32808;SDS011;19159;48.178;16.386;2024-03-23T07:23:43;10.40;;;8.68;;
32808;SDS011;19159;48.178;16.386;2024-03-23T07:26:12;9.55;;;8.50;;
32808;SDS011;19159;48.178;16.386;2024-03-23T07:28:38;8.38;;;7.57;;
32808;SDS011;19159;48.178;16.386;2024-03-23T07:31:09;8.15;;;6.85;;
32808;SDS011;19159;48.178;16.386;2024-03-23T07:33:36;7.75;;;7.05;;
32808;SDS011;19159;48.178;16.386;2024-03-23T07:36:03;10.88;;;7.18;;
32808;SDS011;19159;48.178;16.386;2024-03-23T07:38:31;7.72;;;6.82;;
32808;SDS011;19159;48.178;16.386;2024-03-23T07:41:04;7.28;;;6.65;;
32808;SDS011;19159;48.178;16.386;2024-03-23T07:43:34;6.50;;;5.85;;
32808;SDS011;19159;48.178;16.386;2024-03-23T07:46:03;7.32;;;6.32;;
32808;SDS011;19159;48.178;16.386;2024-03-23T07:48:30;7.13;;;6.43;;
32808;SDS011;19159;48.178;16.386;2024-03-23T07:51:17;9.40;;;6.97;;
32808;SDS011;19159;48.178;16.386;2024-03-23T07:53:43;9.10;;;6.63;;
32808;SDS011;19159;48.178;16.386;2024-03-23T07:56:11;8.95;;;7.07;;
32808;SDS011;19159;48.178;16.386;2024-03-23T07:58:37;8.35;;;7.18;;
32808;SDS011;19159;48.178;16.386;2024-03-23T08:01:07;8.30;;;7.50;;
32808;SDS011;19159;48.178;16.386;2024-03-23T08:03:35;7.43;;;6.63;;
32808;SDS011;19159;48.178;16.386;2024-03-23T08:06:11;8.75;;;7.25;;
32808;SDS011;19159;48.178;16.386;2024-03-23T08:08:42;7.15;;;6.43;;
32808;SDS011;19159;48.178;16.386;2024-03-23T08:11:13;6.85;;;6.15;;
32808;SDS011;19159;48.178;16.386;2024-03-23T08:13:39;6.85;;;5.65;;
32808;SDS011;19159;48.178;16.386;2024-03-23T08:16:06;6.82;;;5.82;;
32808;SDS011;19159;48.178;16.386;2024-03-23T08:18:33;7.07;;;5.65;;
32808;SDS011;19159;48.178;16.386;2024-03-23T08:21:01;6.38;;;4.43;;
32808;SDS011;19159;48.178;16.386;2024-03-23T08:23:28;6.55;;;4.50;;
32808;SDS011;19159;48.178;16.386;2024-03-23T08:25:58;4.65;;;4.15;;
32808;SDS011;19159;48.178;16.386;2024-03-23T08:28:27;5.78;;;3.58;;
32808;SDS011;19159;48.178;16.386;2024-03-23T08:30:53;4.03;;;3.20;;
32808;SDS011;19159;48.178;16.386;2024-03-23T08:33:20;6.85;;;3.08;;
32808;SDS011;19159;48.178;16.386;2024-03-23T08:35:53;3.78;;;3.42;;
32808;SDS011;19159;48.178;16.386;2024-03-23T08:38:18;3.42;;;3.13;;
32808;SDS011;19159;48.178;16.386;2024-03-23T08:40:44;4.68;;;3.20;;
32808;SDS011;19159;48.178;16.386;2024-03-23T08:43:10;3.45;;;3.15;;
32808;SDS011;19159;48.178;16.386;2024-03-23T08:45:35;4.90;;;3.30;;
32808;SDS011;19159;48.178;16.386;2024-03-23T08:48:01;3.47;;;2.95;;
32808;SDS011;19159;48.178;16.386;2024-03-23T08:50:26;5.70;;;2.78;;
32808;SDS011;19159;48.178;16.386;2024-03-23T08:52:52;4.30;;;3.08;;
32808;SDS011;19159;48.178;16.386;2024-03-23T08:55:18;2.88;;;2.30;;
32808;SDS011;19159;48.178;16.386;2024-03-23T08:57:43;2.83;;;2.17;;
32808;SDS011;19159;48.178;16.386;2024-03-23T09:00:09;3.45;;;2.40;;
32808;SDS011;19159;48.178;16.386;2024-03-23T09:02:36;4.88;;;2.28;;
32808;SDS011;19159;48.178;16.386;2024-03-23T09:05:02;3.70;;;2.50;;
32808;SDS011;19159;48.178;16.386;2024-03-23T09:07:30;3.42;;;2.17;;
32808;SDS011;19159;48.178;16.386;2024-03-23T09:09:56;2.72;;;1.90;;
32808;SDS011;19159;48.178;16.386;2024-03-23T09:12:22;3.70;;;2.45;;
32808;SDS011;19159;48.178;16.386;2024-03-23T09:14:48;2.25;;;1.88;;
32808;SDS011;19159;48.178;16.386;2024-03-23T09:17:14;2.35;;;1.90;;
32808;SDS011;19159;48.178;16.386;2024-03-23T09:19:40;2.10;;;1.67;;
32808;SDS011;19159;48.178;16.386;2024-03-23T09:22:06;2.42;;;1.40;;
32808;SDS011;19159;48.178;16.386;2024-03-23T09:24:31;2.08;;;1.55;;
32808;SDS011;19159;48.178;16.386;2024-03-23T09:26:57;2.20;;;1.67;;
32808;SDS011;19159;48.178;16.386;2024-03-23T09:29:23;2.55;;;1.70;;
32808;SDS011;19159;48.178;16.386;2024-03-23T09:31:48;2.97;;;1.48;;
32808;SDS011;19159;48.178;16.386;2024-03-23T09:34:14;1.80;;;1.33;;
32808;SDS011;19159;48.178;16.386;2024-03-23T09:36:40;2.50;;;1.35;;
32808;SDS011;19159;48.178;16.386;2024-03-23T09:39:06;2.47;;;1.50;;
32808;SDS011;19159;48.178;16.386;2024-03-23T09:41:34;2.08;;;1.40;;
32808;SDS011;19159;48.178;16.386;2024-03-23T09:44:00;2.20;;;1.30;;
32808;SDS011;19159;48.178;16.386;2024-03-23T09:46:27;2.30;;;1.33;;
32808;SDS011;19159;48.178;16.386;2024-03-23T09:48:53;1.52;;;1.13;;
32808;SDS011;19159;48.178;16.386;2024-03-23T09:51:21;1.50;;;1.40;;
32808;SDS011;19159;48.178;16.386;2024-03-23T09:53:46;2.13;;;1.48;;
32808;SDS011;19159;48.178;16.386;2024-03-23T09:56:15;2.33;;;1.63;;
32808;SDS011;19159;48.178;16.386;2024-03-23T09:58:42;2.22;;;1.63;;
32808;SDS011;19159;48.178;16.386;2024-03-23T10:01:08;1.75;;;1.33;;
32808;SDS011;19159;48.178;16.386;2024-03-23T10:03:46;2.60;;;1.60;;
32808;SDS011;19159;48.178;16.386;2024-03-23T10:06:12;2.38;;;1.50;;
32808;SDS011;19159;48.178;16.386;2024-03-23T10:08:37;1.75;;;1.40;;
32808;SDS011;19159;48.178;16.386;2024-03-23T10:11:16;1.63;;;1.10;;
32808;SDS011;19159;48.178;16.386;2024-03-23T10:13:42;2.45;;;1.30;;
32808;SDS011;19159;48.178;16.386;2024-03-23T10:16:08;2.83;;;1.40;;
32808;SDS011;19159;48.178;16.386;2024-03-23T10:18:38;2.42;;;1.70;;
32808;SDS011;19159;48.178;16.386;2024-03-23T10:23:30;2.50;;;1.60;;
32808;SDS011;19159;48.178;16.386;2024-03-23T10:26:22;3.42;;;1.80;;
32808;SDS011;19159;48.178;16.386;2024-03-23T10:31:27;2.20;;;1.70;;
32808;SDS011;19159;48.178;16.386;2024-03-23T10:33:53;4.53;;;1.42;;
32808;SDS011;19159;48.178;16.386;2024-03-23T10:36:20;2.83;;;1.52;;
32808;SDS011;19159;48.178;16.386;2024-03-23T10:38:51;2.00;;;1.27;;
32808;SDS011;19159;48.178;16.386;2024-03-23T10:41:17;2.28;;;1.58;;
32808;SDS011;19159;48.178;16.386;2024-03-23T10:43:47;2.67;;;1.48;;
32808;SDS011;19159;48.178;16.386;2024-03-23T10:46:14;2.60;;;1.33;;
32808;SDS011;19159;48.178;16.386;2024-03-23T10:48:40;2.40;;;1.33;;
32808;SDS011;19159;48.178;16.386;2024-03-23T10:51:07;1.92;;;1.30;;
32808;SDS011;19159;48.178;16.386;2024-03-23T10:53:34;1.35;;;1.20;;
32808;SDS011;19159;48.178;16.386;2024-03-23T10:56:00;3.45;;;1.20;;
32808;SDS011;19159;48.178;16.386;2024-03-23T10:58:32;2.65;;;1.30;;
32808;SDS011;19159;48.178;16.386;2024-03-23T11:01:06;4.65;;;1.27;;
32808;SDS011;19159;48.178;16.386;2024-03-23T11:03:36;4.00;;;1.20;;
32808;SDS011;19159;48.178;16.386;2024-03-23T11:06:05;2.33;;;1.40;;
32808;SDS011;19159;48.178;16.386;2024-03-23T11:08:34;2.75;;;1.20;;
32808;SDS011;19159;48.178;16.386;2024-03-23T11:13:38;1.30;;;1.10;;
32808;SDS011;19159;48.178;16.386;2024-03-23T11:16:17;2.33;;;1.10;;
32808;SDS011;19159;48.178;16.386;2024-03-23T11:21:59;2.13;;;1.30;;
32808;SDS011;19159;48.178;16.386;2024-03-23T11:24:25;1.65;;;1.05;;
32808;SDS011;19159;48.178;16.386;2024-03-23T11:26:50;1.90;;;1.00;;
32808;SDS011;19159;48.178;16.386;2024-03-23T11:29:16;2.25;;;1.10;;
32808;SDS011;19159;48.178;16.386;2024-03-23T11:31:49;7.68;;;1.50;;
32808;SDS011;19159;48.178;16.386;2024-03-23T11:34:16;4.43;;;1.30;;
32808;SDS011;19159;48.178;16.386;2024-03-23T11:36:42;3.47;;;0.80;;
32808;SDS011;19159;48.178;16.386;2024-03-23T11:39:15;2.80;;;1.25;;
32808;SDS011;19159;48.178;16.386;2024-03-23T11:41:51;2.17;;;1.30;;
32808;SDS011;19159;48.178;16.386;2024-03-23T11:44:20;2.13;;;1.10;;
32808;SDS011;19159;48.178;16.386;2024-03-23T11:46:49;3.17;;;0.90;;
32808;SDS011;19159;48.178;16.386;2024-03-23T11:51:50;3.83;;;1.73;;
32808;SDS011;19159;48.178;16.386;2024-03-23T11:54:19;2.95;;;0.95;;
32808;SDS011;19159;48.178;16.386;2024-03-23T11:57:03;1.88;;;1.20;;
32808;SDS011;19159;48.178;16.386;2024-03-23T11:59:39;2.17;;;1.17;;
32808;SDS011;19159;48.178;16.386;2024-03-23T12:04:39;2.15;;;0.80;;
32808;SDS011;19159;48.178;16.386;2024-03-23T12:07:09;1.58;;;1.00;;
32808;SDS011;19159;48.178;16.386;2024-03-23T12:09:39;3.08;;;0.98;;
32808;SDS011;19159;48.178;16.386;2024-03-23T12:15:00;3.83;;;1.30;;
32808;SDS011;19159;48.178;16.386;2024-03-23T12:17:31;2.30;;;1.00;;
32808;SDS011;19159;48.178;16.386;2024-03-23T12:19:57;3.58;;;1.15;;
32808;SDS011;19159;48.178;16.386;2024-03-23T12:22:23;1.70;;;1.00;;
32808;SDS011;19159;48.178;16.386;2024-03-23T12:24:49;1.85;;;1.10;;
32808;SDS011;19159;48.178;16.386;2024-03-23T12:27:15;2.33;;;1.10;;
32808;SDS011;19159;48.178;16.386;2024-03-23T12:29:41;2.05;;;1.20;;
32808;SDS011;19159;48.178;16.386;2024-03-23T12:32:10;1.90;;;1.20;;
32808;SDS011;19159;48.178;16.386;2024-03-23T12:34:37;3.88;;;1.80;;
32808;SDS011;19159;48.178;16.386;2024-03-23T12:37:03;4.38;;;1.42;;
32808;SDS011;19159;48.178;16.386;2024-03-23T12:39:29;2.13;;;1.30;;
32808;SDS011;19159;48.178;16.386;2024-03-23T12:41:54;2.85;;;1.48;;
32808;SDS011;19159;48.178;16.386;2024-03-23T12:44:20;2.83;;;1.27;;
32808;SDS011;19159;48.178;16.386;2024-03-23T12:46:46;6.07;;;1.30;;
32808;SDS011;19159;48.178;16.386;2024-03-23T12:49:11;2.55;;;1.30;;
32808;SDS011;19159;48.178;16.386;2024-03-23T12:51:37;2.50;;;2.10;;
32808;SDS011;19159;48.178;16.386;2024-03-23T12:54:03;3.03;;;2.00;;
32808;SDS011;19159;48.178;16.386;2024-03-23T12:56:29;2.60;;;2.00;;
32808;SDS011;19159;48.178;16.386;2024-03-23T12:58:55;3.47;;;1.80;;
32808;SDS011;19159;48.178;16.386;2024-03-23T13:01:24;5.53;;;1.88;;
32808;SDS011;19159;48.178;16.386;2024-03-23T13:03:50;5.25;;;1.50;;
32808;SDS011;19159;48.178;16.386;2024-03-23T13:06:16;3.95;;;1.75;;
32808;SDS011;19159;48.178;16.386;2024-03-23T13:08:46;2.78;;;0.93;;
32808;SDS011;19159;48.178;16.386;2024-03-23T13:11:12;4.43;;;1.08;;
32808;SDS011;19159;48.178;16.386;2024-03-23T13:13:39;1.73;;;0.80;;
32808;SDS011;19159;48.178;16.386;2024-03-23T13:16:06;1.27;;;0.80;;
32808;SDS011;19159;48.178;16.386;2024-03-23T13:18:32;2.90;;;0.90;;
32808;SDS011;19159;48.178;16.386;2024-03-23T13:20:58;1.23;;;0.73;;
32808;SDS011;19159;48.178;16.386;2024-03-23T13:23:24;3.40;;;0.70;;
32808;SDS011;19159;48.178;16.386;2024-03-23T13:25:54;2.10;;;0.60;;
32808;SDS011;19159;48.178;16.386;2024-03-23T13:28:23;6.40;;;0.70;;
32808;SDS011;19159;48.178;16.386;2024-03-23T13:30:55;1.10;;;0.63;;
32808;SDS011;19159;48.178;16.386;2024-03-23T13:33:22;0.45;;;0.43;;
32808;SDS011;19159;48.178;16.386;2024-03-23T13:35:51;1.38;;;0.70;;
32808;SDS011;19159;48.178;16.386;2024-03-23T13:38:17;1.63;;;0.65;;
32808;SDS011;19159;48.178;16.386;2024-03-23T13:41:16;0.88;;;0.50;;
32808;SDS011;19159;48.178;16.386;2024-03-23T13:43:37;3.03;;;0.98;;
32808;SDS011;19159;48.178;16.386;2024-03-23T13:46:03;1.63;;;0.70;;
32808;SDS011;19159;48.178;16.386;2024-03-23T13:48:29;1.63;;;0.80;;
32808;SDS011;19159;48.178;16.386;2024-03-23T13:51:01;1.33;;;0.60;;
32808;SDS011;19159;48.178;16.386;2024-03-23T13:53:28;2.45;;;0.70;;
32808;SDS011;19159;48.178;16.386;2024-03-23T13:55:54;1.10;;;0.70;;
32808;SDS011;19159;48.178;16.386;2024-03-23T13:58:20;1.48;;;0.63;;
32808;SDS011;19159;48.178;16.386;2024-03-23T14:00:46;0.70;;;0.57;;
32808;SDS011;19159;48.178;16.386;2024-03-23T14:03:12;1.17;;;0.63;;
32808;SDS011;19159;48.178;16.386;2024-03-23T14:05:39;2.13;;;0.82;;
32808;SDS011;19159;48.178;16.386;2024-03-23T14:08:09;1.80;;;0.93;;
32808;SDS011;19159;48.178;16.386;2024-03-23T14:10:35;1.70;;;0.77;;
32808;SDS011;19159;48.178;16.386;2024-03-23T14:13:01;1.45;;;0.75;;
32808;SDS011;19159;48.178;16.386;2024-03-23T14:15:28;1.60;;;0.70;;
32808;SDS011;19159;48.178;16.386;2024-03-23T14:17:55;0.80;;;0.80;;
32808;SDS011;19159;48.178;16.386;2024-03-23T14:20:22;1.67;;;0.77;;
32808;SDS011;19159;48.178;16.386;2024-03-23T14:22:49;1.27;;;0.80;;
32808;SDS011;19159;48.178;16.386;2024-03-23T14:25:15;1.80;;;0.80;;
32808;SDS011;19159;48.178;16.386;2024-03-23T14:27:41;1.00;;;0.80;;
32808;SDS011;19159;48.178;16.386;2024-03-23T14:30:09;2.03;;;1.00;;
32808;SDS011;19159;48.178;16.386;2024-03-23T14:32:34;1.38;;;0.90;;
32808;SDS011;19159;48.178;16.386;2024-03-23T14:35:01;1.88;;;1.10;;
32808;SDS011;19159;48.178;16.386;2024-03-23T14:37:26;1.15;;;0.80;;
32808;SDS011;19159;48.178;16.386;2024-03-23T14:39:52;1.65;;;0.90;;
32808;SDS011;19159;48.178;16.386;2024-03-23T14:42:18;1.73;;;1.00;;
32808;SDS011;19159;48.178;16.386;2024-03-23T14:44:43;1.73;;;1.00;;
32808;SDS011;19159;48.178;16.386;2024-03-23T14:47:09;1.60;;;1.00;;
32808;SDS011;19159;48.178;16.386;2024-03-23T14:49:35;2.60;;;1.17;;
32808;SDS011;19159;48.178;16.386;2024-03-23T14:52:01;1.60;;;1.10;;
32808;SDS011;19159;48.178;16.386;2024-03-23T14:54:27;2.47;;;1.33;;
32808;SDS011;19159;48.178;16.386;2024-03-23T14:56:52;1.65;;;1.20;;
32808;SDS011;19159;48.178;16.386;2024-03-23T14:59:18;1.25;;;1.00;;
32808;SDS011;19159;48.178;16.386;2024-03-23T15:01:44;2.55;;;1.00;;
32808;SDS011;19159;48.178;16.386;2024-03-23T15:04:10;1.40;;;1.00;;
32808;SDS011;19159;48.178;16.386;2024-03-23T15:06:36;0.70;;;0.70;;
32808;SDS011;19159;48.178;16.386;2024-03-23T15:09:01;1.15;;;0.80;;
32808;SDS011;19159;48.178;16.386;2024-03-23T15:11:32;1.58;;;1.02;;
32808;SDS011;19159;48.178;16.386;2024-03-23T15:13:57;1.45;;;1.00;;
32808;SDS011;19159;48.178;16.386;2024-03-23T15:16:23;1.63;;;1.30;;
32808;SDS011;19159;48.178;16.386;2024-03-23T15:18:49;1.33;;;0.90;;
32808;SDS011;19159;48.178;16.386;2024-03-23T15:21:14;1.00;;;0.80;;
32808;SDS011;19159;48.178;16.386;2024-03-23T15:23:45;1.38;;;0.70;;
32808;SDS011;19159;48.178;16.386;2024-03-23T15:26:11;1.27;;;0.70;;
32808;SDS011;19159;48.178;16.386;2024-03-23T15:28:36;1.85;;;0.90;;
32808;SDS011;19159;48.178;16.386;2024-03-23T15:31:20;1.90;;;0.82;;
32808;SDS011;19159;48.178;16.386;2024-03-23T15:33:46;1.92;;;0.80;;
32808;SDS011;19159;48.178;16.386;2024-03-23T15:36:12;1.30;;;0.70;;
32808;SDS011;19159;48.178;16.386;2024-03-23T15:38:37;3.58;;;0.80;;
32808;SDS011;19159;48.178;16.386;2024-03-23T15:41:03;1.40;;;0.70;;
32808;SDS011;19159;48.178;16.386;2024-03-23T15:43:29;1.60;;;0.80;;
32808;SDS011;19159;48.178;16.386;2024-03-23T15:46:00;1.58;;;0.80;;